»·PEaware :: SWA671 KRNO-KPDX

SWA671 :: KRNO-KPDX

FLIGHT INFORMATION

Flight Status: Arrived
Operator:
Southwest Airlines
More flights by this operator :: More flights under this callsign
Pilot: Jeffrey V. (11717)
Aircraft: BOEING 737-800
(B738)
More flights by this aircraft type
Origin: KRNO Reno/Tahoe Intl
United States
Destination: KPDX Portland Intl
United States
More flights between these airports :: More routes between these airports
Route: +FMG8 FMG J92 LMT DCT MOXEE DCT PORTL TMBRS2
File this flight plan on PilotEdge
Remarks: PBN / A1B1C1D1S1S2 NAV / RNVD1E2A1 REG / N8608N EET / KZSE0021
Altitude:
(Current/Filed)
30,000ft
Speed:
(Current/Filed)
455kts
Departed: 23-Jul-18 12:44 PM
Arrived: 23-Jul-18 01:51 PM
Distance/Time
Traveled:
386nm/1:07
Distance/Time
To Go:
Arrived

Flight Plot

Page will automatically refresh every two minutes.

Flight plan parsing failed; only flown route is shown


Map Options




Map Legend


Flown Route
Filed Route
Departure Airport
Arrival Airport
Navaid (VOR, NDB)
Fix

Horizontal Profiles

Position Reports

Time Latitude Longitude Heading Altitude Ground
Speed
23-Jul-18 12:03 39.506571 -119.773131 342 4415ft 0kts
23-Jul-18 12:04 39.506571 -119.773131 342 4415ft 0kts
23-Jul-18 12:05 39.506571 -119.773131 342 4415ft 0kts
23-Jul-18 12:06 39.506571 -119.773131 342 4415ft 0kts
23-Jul-18 12:07 39.506571 -119.773131 342 4415ft 0kts
23-Jul-18 12:08 39.506571 -119.773131 342 4415ft 0kts
23-Jul-18 12:09 39.506571 -119.773131 342 4415ft 0kts
23-Jul-18 12:10 39.506571 -119.773131 342 4415ft 0kts
23-Jul-18 12:11 39.506571 -119.773131 342 4415ft 0kts
23-Jul-18 12:12 39.506571 -119.773131 342 4415ft 0kts
23-Jul-18 12:13 39.506571 -119.773131 342 4415ft 0kts
23-Jul-18 12:14 39.506571 -119.773131 342 4415ft 0kts
23-Jul-18 12:15 39.506571 -119.773131 342 4415ft 0kts
23-Jul-18 12:16 39.506571 -119.773131 342 4415ft 0kts
23-Jul-18 12:17 39.506571 -119.773131 342 4415ft 0kts
23-Jul-18 12:18 39.506571 -119.773131 342 4415ft 0kts
23-Jul-18 12:19 39.506571 -119.773131 342 4415ft 0kts
23-Jul-18 12:20 39.506571 -119.773131 342 4415ft 0kts
23-Jul-18 12:21 39.506571 -119.773131 342 4415ft 0kts
23-Jul-18 12:22 39.506571 -119.773131 342 4415ft 0kts
23-Jul-18 12:23 39.506571 -119.773131 342 4415ft 0kts
23-Jul-18 12:24 39.506571 -119.773131 342 4415ft 0kts
23-Jul-18 12:25 39.506571 -119.773131 342 4415ft 0kts
23-Jul-18 12:26 39.506571 -119.773131 342 4415ft 0kts
23-Jul-18 12:27 39.506571 -119.773131 342 4415ft 0kts
23-Jul-18 12:28 39.506571 -119.773131 342 4415ft 0kts
23-Jul-18 12:29 39.506571 -119.773131 342 4415ft 0kts
23-Jul-18 12:30 39.506571 -119.773131 342 4415ft 0kts
23-Jul-18 12:31 39.506571 -119.773131 342 4415ft 0kts
23-Jul-18 12:32 39.506571 -119.773131 342 4415ft 0kts
23-Jul-18 12:33 39.506352 -119.773049 352 4415ft 2kts
23-Jul-18 12:34 39.505925 -119.773430 79 4415ft 2kts
23-Jul-18 12:35 39.505917 -119.773615 93 4416ft 0kts
23-Jul-18 12:36 39.505917 -119.773615 94 4416ft 0kts
23-Jul-18 12:37 39.505917 -119.773615 94 4416ft 0kts
23-Jul-18 12:38 39.505917 -119.773615 94 4416ft 0kts
23-Jul-18 12:39 39.505910 -119.773431 92 4415ft 0kts
23-Jul-18 12:40 39.505911 -119.772309 89 4414ft 10kts
23-Jul-18 12:41 39.509031 -119.771509 359 4416ft 16kts
23-Jul-18 12:42 39.513101 -119.771472 0 4420ft 4kts
23-Jul-18 12:43 39.513232 -119.771472 0 4420ft 3kts
23-Jul-18 12:44 39.513698 -119.769516 108 4420ft 10kts
23-Jul-18 12:45 39.491158 -119.769211 177 4605ft 189kts
23-Jul-18 12:46 39.433476 -119.767976 176 6879ft 232kts
23-Jul-18 12:47 39.411675 -119.711415 40 8980ft 255kts
23-Jul-18 12:48 39.480626 -119.676964 17 10956ft 281kts
23-Jul-18 12:49 39.556741 -119.671580 331 12899ft 294kts
23-Jul-18 12:50 39.630827 -119.729754 327 14857ft 322kts
23-Jul-18 12:51 39.709431 -119.790658 327 16394ft 356kts
23-Jul-18 12:52 39.793521 -119.855275 327 18980ft 370kts
23-Jul-18 12:53 39.882009 -119.923183 327 21456ft 383kts
23-Jul-18 12:54 39.974438 -119.994086 326 23716ft 395kts
23-Jul-18 12:55 40.070242 -120.067554 326 25807ft 406kts
23-Jul-18 12:56 40.157080 -120.134132 326 27475ft 416kts
23-Jul-18 12:57 40.254332 -120.208681 326 29136ft 425kts
23-Jul-18 12:58 40.355854 -120.286498 326 30298ft 437kts
23-Jul-18 12:59 40.460065 -120.367426 325 30297ft 464kts
23-Jul-18 13:00 40.570648 -120.455646 325 30291ft 467kts
23-Jul-18 13:01 40.680743 -120.544259 325 30291ft 466kts
23-Jul-18 13:02 40.791050 -120.633089 325 30291ft 467kts
23-Jul-18 13:03 40.893375 -120.715451 325 30300ft 466kts
23-Jul-18 13:04 41.001551 -120.802479 325 30305ft 466kts
23-Jul-18 13:05 41.107436 -120.887615 324 30303ft 463kts
23-Jul-18 13:06 41.214593 -120.973766 324 30300ft 463kts
23-Jul-18 13:07 41.324907 -121.062397 324 30300ft 464kts
23-Jul-18 13:08 41.434239 -121.150194 324 30300ft 466kts
23-Jul-18 13:09 41.544732 -121.238883 324 30299ft 466kts
23-Jul-18 13:10 41.654476 -121.326928 324 30295ft 466kts
23-Jul-18 13:11 41.765432 -121.415908 325 30292ft 466kts
23-Jul-18 13:12 41.876304 -121.504787 325 30292ft 466kts
23-Jul-18 13:13 41.987176 -121.593633 325 30292ft 466kts
23-Jul-18 13:14 42.090932 -121.676753 324 30297ft 466kts
23-Jul-18 13:15 42.193519 -121.748903 335 30300ft 472kts
23-Jul-18 13:16 42.312693 -121.807960 335 30292ft 472kts
23-Jul-18 13:17 42.433248 -121.867896 335 30293ft 472kts
23-Jul-18 13:18 42.549085 -121.925843 335 30293ft 472kts
23-Jul-18 13:19 42.671178 -121.987239 335 30293ft 472kts
23-Jul-18 13:20 42.793475 -122.049042 335 30294ft 472kts
23-Jul-18 13:21 42.915824 -122.111153 335 30282ft 472kts
23-Jul-18 13:22 43.037406 -122.173079 333 30174ft 465kts
23-Jul-18 13:23 43.152038 -122.231811 333 30152ft 465kts
23-Jul-18 13:24 43.270378 -122.292712 333 30151ft 464kts
23-Jul-18 13:25 43.390905 -122.355004 333 30153ft 464kts
23-Jul-18 13:26 43.506003 -122.414743 333 30152ft 464kts
23-Jul-18 13:27 43.623220 -122.475836 333 30156ft 464kts
23-Jul-18 13:28 43.741289 -122.537625 333 30161ft 463kts
23-Jul-18 13:29 43.857397 -122.598647 333 30152ft 463kts
23-Jul-18 13:30 43.968593 -122.657139 333 28143ft 434kts
23-Jul-18 13:31 44.076094 -122.713973 333 25820ft 416kts
23-Jul-18 13:32 44.178582 -122.750656 356 24167ft 400kts
23-Jul-18 13:33 44.288880 -122.740453 359 21803ft 414kts
23-Jul-18 13:34 44.401237 -122.729069 0 19663ft 394kts
23-Jul-18 13:35 44.507634 -122.718358 0 18079ft 383kts
23-Jul-18 13:36 44.608847 -122.708180 0 16540ft 374kts
23-Jul-18 13:37 44.710653 -122.697878 0 14955ft 364kts
23-Jul-18 13:38 44.808076 -122.687976 1 13365ft 346kts
23-Jul-18 13:39 44.898935 -122.678779 1 12013ft 336kts
23-Jul-18 13:40 44.988009 -122.669721 1 10720ft 321kts
23-Jul-18 13:41 45.074690 -122.660887 1 9421ft 306kts
23-Jul-18 13:42 45.154423 -122.652756 2 8151ft 286kts
23-Jul-18 13:43 45.224527 -122.645535 2 7028ft 243kts
23-Jul-18 13:44 45.286753 -122.611538 30 6745ft 247kts
23-Jul-18 13:45 45.343151 -122.560170 30 5110ft 239kts
23-Jul-18 13:46 45.394322 -122.513761 30 5011ft 202kts
23-Jul-18 13:47 45.442823 -122.469773 30 4254ft 210kts
23-Jul-18 13:48 45.493072 -122.430771 9 3360ft 206kts
23-Jul-18 13:49 45.534123 -122.463268 299 2188ft 176kts
23-Jul-18 13:50 45.554832 -122.519786 300 861ft 153kts
23-Jul-18 13:51 45.575716 -122.571936 298 231ft 149kts
23-Jul-18 13:52 45.589130 -122.605026 33 24ft 8kts
23-Jul-18 13:53 45.589299 -122.604818 42 24ft 0kts
23-Jul-18 13:54 45.589514 -122.604534 43 24ft 13kts
23-Jul-18 13:55 45.592244 -122.600586 77 27ft 2kts
23-Jul-18 13:56 45.592208 -122.598386 32 27ft 4kts
23-Jul-18 13:57 45.591924 -122.596940 130 27ft 0kts
23-Jul-18 13:58 45.591924 -122.596940 130 27ft 0kts
23-Jul-18 13:59 45.591924 -122.596940 130 27ft 0kts
23-Jul-18 14:00 45.591924 -122.596940 130 27ft 0kts
23-Jul-18 14:01 45.591924 -122.596940 130 27ft 0kts
23-Jul-18 14:02 45.591924 -122.596940 130 27ft 0kts

Navigation Log

Ident Type
Flight plan parsing failed, navigation log unavailable